Time;durP1;ratioP1;P1;durP2;ratioP2;P2;SDS_P1;SDS_P2;PMS_P1;PMS_P2;Temp;Humidity;BMP_temperature;BMP_pressure;BME280_temperature;BME280_humidity;BME280_pressure;Samples;Min_cycle;Max_cycle;Signal;HPM_P1;HPM_P2
2022/10/14 00:01:58;;;;;;;29.67;13.10;;;;;;;;;;8330769;28;20519;-88
2022/10/14 00:06:04;;;;;;;27.88;13.98;;;;;;;;;;8325196;28;20053;-87
2022/10/14 00:10:08;;;;;;;29.25;12.63;;;;;;;;;;8330390;28;20229;-89
2022/10/14 00:14:15;;;;;;;21.40;12.18;;;;;;;;;;8309902;28;20053;-88
2022/10/14 00:18:19;;;;;;;29.80;12.77;;;;;;;;;;8310109;28;20452;-90
2022/10/14 00:22:21;;;;;;;29.13;12.20;;;;;;;;;;8317894;28;20401;-89
2022/10/14 00:26:26;;;;;;;23.80;11.98;;;;;;;;;;8330071;28;20049;-89
2022/10/14 00:30:28;;;;;;;29.15;11.70;;;;;;;;;;8326846;28;20584;-89
2022/10/14 00:34:32;;;;;;;26.50;11.75;;;;;;;;;;8326390;28;20041;-87
2022/10/14 00:38:36;;;;;;;30.42;13.02;;;;;;;;;;8308715;28;20049;-88
2022/10/14 00:42:38;;;;;;;19.73;11.32;;;;;;;;;;8329326;28;20525;-88
2022/10/14 00:46:42;;;;;;;23.17;11.80;;;;;;;;;;8324832;28;20045;-88
2022/10/14 00:50:49;;;;;;;25.33;12.82;;;;;;;;;;8320593;28;20109;-88
2022/10/14 00:54:55;;;;;;;26.00;12.85;;;;;;;;;;8318322;28;20485;-88
2022/10/14 00:58:58;;;;;;;29.02;12.50;;;;;;;;;;8321590;28;20041;-87
2022/10/14 01:03:00;;;;;;;24.42;12.20;;;;;;;;;;8318775;28;20159;-88
2022/10/14 01:07:13;;;;;;;21.50;11.98;;;;;;;;;;8596003;22;20147;-90
2022/10/14 01:11:21;;;;;;;23.02;11.52;;;;;;;;;;8453258;28;20039;-87
2022/10/14 01:15:32;;;;;;;25.15;12.80;;;;;;;;;;8457873;28;20043;-87
2022/10/14 01:19:59;;;;;;;26.07;12.90;;;;;;;;;;8442973;28;20449;-87
2022/10/14 01:24:41;;;;;;;27.20;12.50;;;;;;;;;;8454290;28;20114;-87
2022/10/14 01:28:54;;;;;;;23.02;11.55;;;;;;;;;;8438749;28;20049;-88
2022/10/14 01:33:08;;;;;;;24.67;12.25;;;;;;;;;;8436279;28;20055;-87
2022/10/14 01:37:15;;;;;;;26.88;13.15;;;;;;;;;;8461310;28;20043;-87
2022/10/14 01:41:21;;;;;;;26.80;13.73;;;;;;;;;;8461984;28;20447;-87
2022/10/14 01:45:27;;;;;;;24.63;12.95;;;;;;;;;;8462915;28;20038;-87
2022/10/14 01:49:35;;;;;;;24.92;12.40;;;;;;;;;;8453380;28;20040;-87
2022/10/14 01:53:42;;;;;;;22.75;12.18;;;;;;;;;;8462037;28;20039;-87
2022/10/14 01:57:46;;;;;;;26.10;12.15;;;;;;;;;;8462464;28;20047;-87
2022/10/14 02:01:48;;;;;;;20.08;11.77;;;;;;;;;;8462138;28;20044;-88
2022/10/14 02:05:55;;;;;;;24.38;11.82;;;;;;;;;;8461576;28;20083;-88
2022/10/14 02:10:05;;;;;;;20.85;11.43;;;;;;;;;;8461593;28;20052;-87
2022/10/14 02:14:23;;;;;;;22.58;12.00;;;;;;;;;;8461528;28;20051;-87
2022/10/14 02:18:35;;;;;;;23.20;12.55;;;;;;;;;;8467206;28;20126;-88
2022/10/14 02:22:43;;;;;;;23.52;12.25;;;;;;;;;;8468343;28;20418;-89
2022/10/14 02:26:48;;;;;;;18.13;10.80;;;;;;;;;;8468150;28;20372;-86
2022/10/14 02:30:54;;;;;;;26.02;12.90;;;;;;;;;;8468773;28;20088;-88
2022/10/14 02:34:59;;;;;;;22.15;12.98;;;;;;;;;;8467694;28;20039;-88
2022/10/14 02:39:04;;;;;;;24.45;11.90;;;;;;;;;;8467138;28;20089;-87
2022/10/14 02:43:09;;;;;;;24.98;12.75;;;;;;;;;;8467318;28;20032;-87
2022/10/14 02:47:11;;;;;;;28.25;13.40;;;;;;;;;;8467051;28;20055;-87
2022/10/14 02:51:13;;;;;;;25.65;12.93;;;;;;;;;;8466980;28;20504;-88
2022/10/14 02:55:17;;;;;;;27.70;13.65;;;;;;;;;;8467125;28;20044;-88
2022/10/14 02:59:20;;;;;;;25.13;13.60;;;;;;;;;;8466749;28;20069;-87
2022/10/14 03:03:22;;;;;;;32.58;14.18;;;;;;;;;;8466801;28;20462;-87
2022/10/14 03:07:25;;;;;;;37.13;13.52;;;;;;;;;;8466478;28;20059;-88
2022/10/14 03:11:32;;;;;;;39.55;16.67;;;;;;;;;;8466127;28;20047;-89
2022/10/14 03:15:34;;;;;;;34.88;14.95;;;;;;;;;;8459485;28;20043;-88
2022/10/14 03:19:36;;;;;;;29.65;15.45;;;;;;;;;;8466290;28;20044;-88
2022/10/14 03:23:39;;;;;;;34.40;19.23;;;;;;;;;;8466067;28;20078;-89
2022/10/14 03:27:43;;;;;;;32.50;18.48;;;;;;;;;;8465393;28;20050;-88
2022/10/14 03:31:46;;;;;;;36.13;18.50;;;;;;;;;;8465818;28;20394;-88
2022/10/14 03:35:48;;;;;;;25.52;14.70;;;;;;;;;;8465376;28;20091;-87
2022/10/14 03:39:51;;;;;;;27.48;13.88;;;;;;;;;;8451991;28;20040;-87
2022/10/14 03:43:55;;;;;;;30.52;14.95;;;;;;;;;;8451326;28;20040;-88
2022/10/14 03:47:58;;;;;;;35.45;16.85;;;;;;;;;;8463552;28;20120;-88
2022/10/14 03:52:00;;;;;;;31.77;18.55;;;;;;;;;;8463788;28;20051;-88
2022/10/14 03:56:03;;;;;;;30.08;15.70;;;;;;;;;;8463380;28;20039;-88
2022/10/14 04:00:08;;;;;;;33.67;17.75;;;;;;;;;;8463708;28;20036;-88
2022/10/14 04:04:11;;;;;;;32.17;17.30;;;;;;;;;;8464145;28;20158;-88
2022/10/14 04:08:13;;;;;;;25.60;14.73;;;;;;;;;;8464285;28;20062;-88
2022/10/14 04:12:16;;;;;;;28.83;16.00;;;;;;;;;;8450042;28;20039;-88
2022/10/14 04:16:20;;;;;;;50.55;30.58;;;;;;;;;;8464389;28;20489;-89
2022/10/14 04:20:23;;;;;;;53.22;32.35;;;;;;;;;;8464063;28;20043;-88
2022/10/14 04:24:25;;;;;;;45.22;24.77;;;;;;;;;;8463958;28;20050;-89
2022/10/14 04:28:28;;;;;;;64.88;41.30;;;;;;;;;;8458710;28;20059;-88
2022/10/14 04:32:32;;;;;;;56.17;35.53;;;;;;;;;;8463505;28;20123;-87
2022/10/14 04:36:34;;;;;;;41.80;19.73;;;;;;;;;;8463375;28;20403;-88
2022/10/14 04:40:37;;;;;;;42.28;24.17;;;;;;;;;;8455452;28;20516;-87
2022/10/14 04:44:39;;;;;;;38.30;22.02;;;;;;;;;;8462084;28;20547;-87
2022/10/14 04:48:43;;;;;;;37.42;20.90;;;;;;;;;;8463101;28;20044;-88
2022/10/14 04:52:45;;;;;;;32.65;20.70;;;;;;;;;;8462783;28;20043;-89
2022/10/14 04:56:48;;;;;;;34.92;21.33;;;;;;;;;;8454159;28;20040;-88
2022/10/14 05:00:53;;;;;;;39.28;20.27;;;;;;;;;;8460177;28;20127;-88
2022/10/14 05:04:58;;;;;;;39.40;20.90;;;;;;;;;;8458043;28;20052;-88
2022/10/14 05:09:02;;;;;;;44.35;19.45;;;;;;;;;;8462829;28;20044;-87
2022/10/14 05:13:04;;;;;;;38.15;19.52;;;;;;;;;;8452166;28;20036;-90
2022/10/14 05:17:07;;;;;;;30.95;15.88;;;;;;;;;;8447614;28;20039;-90
2022/10/14 05:21:11;;;;;;;27.98;16.45;;;;;;;;;;8462751;28;20064;-89
2022/10/14 05:25:14;;;;;;;31.42;17.20;;;;;;;;;;8458435;28;20052;-88
2022/10/14 05:29:16;;;;;;;25.17;14.73;;;;;;;;;;8462781;28;20445;-88
2022/10/14 05:33:19;;;;;;;26.60;14.07;;;;;;;;;;8457108;28;20055;-88
2022/10/14 05:37:23;;;;;;;26.25;14.63;;;;;;;;;;8456187;28;20053;-90
2022/10/14 05:41:26;;;;;;;28.33;17.17;;;;;;;;;;8433780;28;20051;-87
2022/10/14 05:45:30;;;;;;;31.48;19.90;;;;;;;;;;8462340;28;20055;-88
2022/10/14 05:49:33;;;;;;;26.33;15.18;;;;;;;;;;8451823;28;20047;-88
2022/10/14 05:53:38;;;;;;;26.55;13.18;;;;;;;;;;8465228;28;20039;-87
2022/10/14 05:57:43;;;;;;;44.40;20.58;;;;;;;;;;8467402;28;20036;-87
2022/10/14 06:01:45;;;;;;;78.97;44.35;;;;;;;;;;8450165;28;20089;-87
2022/10/14 06:05:48;;;;;;;83.55;44.40;;;;;;;;;;8455419;28;20079;-88
2022/10/14 06:09:53;;;;;;;35.50;19.17;;;;;;;;;;8463358;28;21024;-86
2022/10/14 06:13:56;;;;;;;34.15;20.08;;;;;;;;;;8449515;28;20065;-87
2022/10/14 06:17:59;;;;;;;38.30;23.85;;;;;;;;;;8453265;28;20043;-86
2022/10/14 06:22:03;;;;;;;31.40;18.08;;;;;;;;;;8465103;28;20080;-88
2022/10/14 06:26:08;;;;;;;57.83;27.00;;;;;;;;;;8466869;28;20043;-87
2022/10/14 06:30:13;;;;;;;44.58;23.70;;;;;;;;;;8461556;28;20043;-88
2022/10/14 06:34:16;;;;;;;53.90;32.38;;;;;;;;;;8457052;28;20479;-86
2022/10/14 06:38:31;;;;;;;38.63;23.20;;;;;;;;;;8449837;28;20122;-87
2022/10/14 06:42:43;;;;;;;33.42;18.77;;;;;;;;;;8464913;28;20044;-87
2022/10/14 06:46:46;;;;;;;69.07;34.78;;;;;;;;;;8464913;28;20048;-87
2022/10/14 06:50:50;;;;;;;57.95;27.23;;;;;;;;;;8462319;28;20047;-87
2022/10/14 06:54:53;;;;;;;42.40;22.60;;;;;;;;;;8465786;28;20063;-86
2022/10/14 06:59:08;;;;;;;32.33;18.15;;;;;;;;;;8465635;28;20115;-87
2022/10/14 07:03:12;;;;;;;36.00;18.77;;;;;;;;;;8460710;28;20111;-87
2022/10/14 07:07:16;;;;;;;36.35;20.58;;;;;;;;;;8454519;28;20055;-86
2022/10/14 07:11:18;;;;;;;35.67;18.95;;;;;;;;;;8451481;28;20505;-88
2022/10/14 07:15:22;;;;;;;42.95;30.10;;;;;;;;;;8456624;28;20044;-87
2022/10/14 07:19:25;;;;;;;35.70;27.08;;;;;;;;;;8466085;28;20043;-88
2022/10/14 07:23:27;;;;;;;31.00;20.42;;;;;;;;;;8464540;28;20067;-89
2022/10/14 07:27:30;;;;;;;56.70;33.38;;;;;;;;;;8466027;28;20056;-89
2022/10/14 07:31:34;;;;;;;47.00;33.35;;;;;;;;;;8463847;28;20044;-88
2022/10/14 07:35:38;;;;;;;39.22;26.45;;;;;;;;;;8467437;28;20368;-88
2022/10/14 07:39:40;;;;;;;40.80;31.73;;;;;;;;;;8465813;28;20480;-88
2022/10/14 07:43:43;;;;;;;29.58;21.70;;;;;;;;;;8465136;28;20047;-88
2022/10/14 07:47:50;;;;;;;38.92;29.63;;;;;;;;;;8464631;28;20040;-88
2022/10/14 07:51:52;;;;;;;39.63;26.02;;;;;;;;;;8465118;28;20047;-88
2022/10/14 07:55:57;;;;;;;42.05;27.30;;;;;;;;;;8465372;28;20051;-87
2022/10/14 08:00:00;;;;;;;30.83;19.10;;;;;;;;;;8464481;28;20417;-88
2022/10/14 08:04:04;;;;;;;27.42;14.55;;;;;;;;;;8458000;28;20040;-88
2022/10/14 08:08:08;;;;;;;31.10;21.38;;;;;;;;;;8459579;28;20074;-89
2022/10/14 08:12:11;;;;;;;23.77;12.73;;;;;;;;;;8444159;28;20043;-88
2022/10/14 08:16:16;;;;;;;26.60;15.02;;;;;;;;;;8455374;28;20460;-89
2022/10/14 08:20:20;;;;;;;29.38;15.85;;;;;;;;;;8440366;28;20036;-88
2022/10/14 08:24:22;;;;;;;27.73;15.80;;;;;;;;;;8460385;28;20039;-87
2022/10/14 08:28:25;;;;;;;18.90;12.43;;;;;;;;;;8453796;28;20102;-86
2022/10/14 08:32:28;;;;;;;22.38;12.60;;;;;;;;;;8455495;28;20071;-86
2022/10/14 08:36:34;;;;;;;21.00;12.80;;;;;;;;;;8464450;28;20044;-91
2022/10/14 08:40:49;;;;;;;21.00;12.77;;;;;;;;;;8456958;28;20051;-87
2022/10/14 08:44:55;;;;;;;24.45;12.85;;;;;;;;;;8462017;28;20048;-87
2022/10/14 08:49:04;;;;;;;21.05;13.25;;;;;;;;;;8463710;28;20066;-87
2022/10/14 08:53:13;;;;;;;21.42;13.90;;;;;;;;;;8454398;28;20074;-86
2022/10/14 08:57:19;;;;;;;25.33;14.18;;;;;;;;;;8463728;28;20130;-87
2022/10/14 09:01:26;;;;;;;26.27;14.32;;;;;;;;;;8463448;28;20043;-87
2022/10/14 09:05:29;;;;;;;22.35;14.95;;;;;;;;;;8463104;28;20131;-87
2022/10/14 09:09:40;;;;;;;26.23;14.77;;;;;;;;;;8463171;28;20044;-89
2022/10/14 09:13:45;;;;;;;24.70;13.73;;;;;;;;;;8455676;28;20039;-86
2022/10/14 09:17:57;;;;;;;26.80;14.43;;;;;;;;;;8456235;28;20039;-88
2022/10/14 09:22:01;;;;;;;24.58;14.43;;;;;;;;;;8462119;28;20497;-89
2022/10/14 09:26:10;;;;;;;27.15;15.43;;;;;;;;;;8453506;28;20040;-88
2022/10/14 09:30:15;;;;;;;22.65;14.00;;;;;;;;;;8453131;28;20039;-89
2022/10/14 09:34:20;;;;;;;24.02;14.85;;;;;;;;;;8461588;28;20475;-87
2022/10/14 09:38:24;;;;;;;26.08;14.48;;;;;;;;;;8451375;28;20051;-88
2022/10/14 09:42:40;;;;;;;43.17;23.73;;;;;;;;;;8458786;28;20039;-88
2022/10/14 09:46:48;;;;;;;32.58;18.13;;;;;;;;;;8462451;28;20112;-87
2022/10/14 09:50:53;;;;;;;24.17;13.40;;;;;;;;;;8462235;28;20043;-86
2022/10/14 09:54:59;;;;;;;43.78;22.88;;;;;;;;;;8458101;28;20085;-88
2022/10/14 09:59:05;;;;;;;26.17;14.57;;;;;;;;;;8456099;28;20044;-88
2022/10/14 10:03:07;;;;;;;22.25;13.73;;;;;;;;;;8462368;28;20047;-88
2022/10/14 10:07:28;;;;;;;26.35;14.27;;;;;;;;;;8452676;28;20131;-87
2022/10/14 10:11:36;;;;;;;27.52;14.77;;;;;;;;;;8461946;28;20051;-87
2022/10/14 10:15:40;;;;;;;25.60;14.70;;;;;;;;;;8462333;28;20063;-88
2022/10/14 10:19:44;;;;;;;24.73;14.57;;;;;;;;;;8462129;28;20048;-87
2022/10/14 10:23:55;;;;;;;22.90;13.32;;;;;;;;;;8461922;28;20108;-87
2022/10/14 10:28:15;;;;;;;23.23;13.85;;;;;;;;;;8462084;28;20569;-88
2022/10/14 10:32:28;;;;;;;25.10;14.05;;;;;;;;;;8461814;28;20040;-90
2022/10/14 10:36:33;;;;;;;26.25;13.95;;;;;;;;;;8437263;28;20519;-89
2022/10/14 10:40:41;;;;;;;22.17;13.82;;;;;;;;;;8455944;28;20105;-90
2022/10/14 10:44:59;;;;;;;23.00;13.20;;;;;;;;;;8456957;28;20565;-89
2022/10/14 10:49:11;;;;;;;24.88;14.05;;;;;;;;;;8462322;28;20047;-88
2022/10/14 10:53:38;;;;;;;23.63;13.65;;;;;;;;;;8464528;28;20495;-90
2022/10/14 10:57:52;;;;;;;25.30;13.57;;;;;;;;;;8454567;28;20058;-88
2022/10/14 11:02:04;;;;;;;23.60;15.05;;;;;;;;;;8462895;28;20463;-93
2022/10/14 11:06:13;;;;;;;22.85;14.02;;;;;;;;;;8441296;28;20059;-89
2022/10/14 11:14:55;;;;;;;24.77;14.40;;;;;;;;;;8450849;28;20426;-87
2022/10/14 11:19:06;;;;;;;28.15;15.55;;;;;;;;;;8443006;28;20050;-87
2022/10/14 11:23:25;;;;;;;26.05;14.65;;;;;;;;;;8457473;28;20039;-90
2022/10/14 11:27:36;;;;;;;29.08;13.90;;;;;;;;;;8448927;28;20421;-91
2022/10/14 11:31:49;;;;;;;22.05;13.48;;;;;;;;;;8436894;28;20044;-90
2022/10/14 11:36:05;;;;;;;20.00;14.13;;;;;;;;;;8443688;28;20040;-90
2022/10/14 11:40:21;;;;;;;24.70;14.43;;;;;;;;;;8442751;28;20918;-91
2022/10/14 11:58:50;;;;;;;20.25;11.85;;;;;;;;;;8306421;28;20052;-91
2022/10/14 12:02:58;;;;;;;19.10;12.85;;;;;;;;;;8318188;28;20044;-91
2022/10/14 12:07:05;;;;;;;24.13;13.43;;;;;;;;;;8312375;28;20104;-90
2022/10/14 12:11:12;;;;;;;20.50;13.25;;;;;;;;;;8315031;28;20073;-89
2022/10/14 12:15:18;;;;;;;22.73;13.52;;;;;;;;;;8311647;28;20494;-89
2022/10/14 12:19:24;;;;;;;25.80;13.63;;;;;;;;;;8311679;28;20345;-90
2022/10/14 12:23:45;;;;;;;21.02;13.82;;;;;;;;;;8321415;28;20255;-87
2022/10/14 12:28:22;;;;;;;23.90;13.20;;;;;;;;;;8316020;28;20041;-88
2022/10/14 12:38:24;;;;;;;30.17;17.65;;;;;;;;;;8306227;28;20077;-89
2022/10/14 12:43:16;;;;;;;21.30;13.63;;;;;;;;;;8296298;28;20073;-88
2022/10/14 12:48:30;;;;;;;23.35;12.73;;;;;;;;;;8299510;28;20049;-89
2022/10/14 12:57:30;;;;;;;19.92;11.43;;;;;;;;;;8308296;28;20058;-89
2022/10/14 13:01:34;;;;;;;24.75;13.18;;;;;;;;;;8317135;28;20053;-87
2022/10/14 13:05:39;;;;;;;19.42;13.32;;;;;;;;;;8322879;28;20124;-87
2022/10/14 13:09:44;;;;;;;19.50;12.40;;;;;;;;;;8324231;28;20594;-87
2022/10/14 13:14:19;;;;;;;21.73;12.27;;;;;;;;;;8323011;28;20129;-89
2022/10/14 13:18:51;;;;;;;21.95;12.68;;;;;;;;;;8317603;28;20045;-89
2022/10/14 13:23:36;;;;;;;20.13;11.93;;;;;;;;;;8322099;28;20100;-89
2022/10/14 13:28:06;;;;;;;19.15;11.30;;;;;;;;;;8307821;28;20056;-87
2022/10/14 13:32:19;;;;;;;18.30;12.07;;;;;;;;;;8399386;22;20183;-87
2022/10/14 13:42:01;;;;;;;19.85;11.25;;;;;;;;;;8345275;28;20063;-88
2022/10/14 13:52:00;;;;;;;17.73;11.68;;;;;;;;;;8425744;22;20071;-88
2022/10/14 13:56:52;;;;;;;18.77;12.45;;;;;;;;;;8352883;28;20854;-89
2022/10/14 14:01:30;;;;;;;20.88;12.73;;;;;;;;;;8363182;28;20494;-87
2022/10/14 14:11:19;;;;;;;20.85;12.48;;;;;;;;;;8317788;28;20059;-88
2022/10/14 14:15:27;;;;;;;21.98;12.77;;;;;;;;;;8352709;28;20057;-88
2022/10/14 14:19:34;;;;;;;20.67;13.63;;;;;;;;;;8361452;28;20041;-86
2022/10/14 14:23:49;;;;;;;19.40;13.00;;;;;;;;;;8367796;28;20132;-91
2022/10/14 14:27:54;;;;;;;26.10;13.70;;;;;;;;;;8347105;28;20053;-88
2022/10/14 14:31:57;;;;;;;18.60;12.30;;;;;;;;;;8361466;28;20049;-88
2022/10/14 14:36:08;;;;;;;26.20;13.65;;;;;;;;;;8362447;28;20045;-88
2022/10/14 14:40:19;;;;;;;22.27;14.63;;;;;;;;;;8353968;28;20400;-87
2022/10/14 14:44:25;;;;;;;27.60;17.60;;;;;;;;;;8361786;28;20496;-87
2022/10/14 14:48:29;;;;;;;41.22;29.15;;;;;;;;;;8366447;28;20048;-90
2022/10/14 14:52:34;;;;;;;38.38;27.73;;;;;;;;;;8362672;28;20040;-87
2022/10/14 14:56:43;;;;;;;43.17;28.38;;;;;;;;;;8357117;28;20718;-88
2022/10/14 15:00:48;;;;;;;35.28;24.80;;;;;;;;;;8363498;28;20045;-87
2022/10/14 15:05:00;;;;;;;30.30;18.95;;;;;;;;;;8360564;28;20045;-88
2022/10/14 15:09:11;;;;;;;25.73;16.77;;;;;;;;;;8356951;28;20485;-88
2022/10/14 15:13:42;;;;;;;27.05;14.80;;;;;;;;;;8359710;28;20499;-88
2022/10/14 15:17:45;;;;;;;83.18;34.25;;;;;;;;;;8353191;28;20052;-88
2022/10/14 15:22:08;;;;;;;242.25;88.28;;;;;;;;;;8363165;28;20560;-87
2022/10/14 15:26:36;;;;;;;105.20;44.55;;;;;;;;;;8360514;28;20052;-87
2022/10/14 15:30:51;;;;;;;64.57;32.80;;;;;;;;;;8358101;28;20463;-87
2022/10/14 15:34:58;;;;;;;25.98;16.33;;;;;;;;;;8360198;28;20045;-88
2022/10/14 15:39:01;;;;;;;27.08;16.77;;;;;;;;;;8360973;28;20126;-89
2022/10/14 15:43:12;;;;;;;102.15;63.65;;;;;;;;;;8346692;28;20080;-87
2022/10/14 15:47:21;;;;;;;38.45;22.67;;;;;;;;;;8360930;28;20090;-88
2022/10/14 15:51:23;;;;;;;169.75;82.22;;;;;;;;;;8359138;28;20061;-87
2022/10/14 15:55:34;;;;;;;33.25;19.08;;;;;;;;;;8360401;28;20059;-88
2022/10/14 15:59:38;;;;;;;32.25;19.02;;;;;;;;;;8360451;28;20478;-87
2022/10/14 16:03:43;;;;;;;28.15;16.15;;;;;;;;;;8360081;28;20503;-87
2022/10/14 16:07:51;;;;;;;24.23;15.63;;;;;;;;;;8368921;28;20036;-88
2022/10/14 16:11:57;;;;;;;34.58;16.20;;;;;;;;;;8360975;28;20051;-87
2022/10/14 16:16:04;;;;;;;36.80;17.42;;;;;;;;;;8355909;28;20134;-88
2022/10/14 16:20:08;;;;;;;31.63;15.57;;;;;;;;;;8359863;28;20072;-88
2022/10/14 16:24:16;;;;;;;29.35;15.35;;;;;;;;;;8360389;28;20041;-87
2022/10/14 16:28:20;;;;;;;33.40;19.00;;;;;;;;;;8358973;28;20045;-88
2022/10/14 16:32:24;;;;;;;36.45;20.55;;;;;;;;;;8358958;28;20040;-89
2022/10/14 16:36:27;;;;;;;38.30;19.63;;;;;;;;;;8360057;28;20044;-89
2022/10/14 16:40:29;;;;;;;31.65;17.92;;;;;;;;;;8363473;28;20052;-87
2022/10/14 16:44:38;;;;;;;30.63;18.63;;;;;;;;;;8362431;28;20055;-87
2022/10/14 16:48:42;;;;;;;39.13;20.58;;;;;;;;;;8365095;28;20510;-88
2022/10/14 16:57:02;;;;;;;39.40;21.67;;;;;;;;;;8367301;28;20060;-88
2022/10/14 17:01:06;;;;;;;38.20;23.77;;;;;;;;;;8394334;28;20123;-89
2022/10/14 17:05:12;;;;;;;46.30;24.42;;;;;;;;;;8396042;28;20510;-87
2022/10/14 17:09:16;;;;;;;40.65;24.13;;;;;;;;;;8395721;28;20048;-88
2022/10/14 17:13:18;;;;;;;96.43;49.45;;;;;;;;;;8395676;28;20480;-88
2022/10/14 17:17:24;;;;;;;82.53;40.17;;;;;;;;;;8395477;28;20053;-87
2022/10/14 17:21:29;;;;;;;71.05;35.78;;;;;;;;;;8394901;28;20056;-87
2022/10/14 17:25:32;;;;;;;50.47;27.67;;;;;;;;;;8395587;28;20068;-87
2022/10/14 17:29:35;;;;;;;41.95;23.67;;;;;;;;;;8381422;28;20048;-87
2022/10/14 17:33:40;;;;;;;52.58;26.45;;;;;;;;;;8402555;28;20086;-88
2022/10/14 17:37:45;;;;;;;53.83;26.10;;;;;;;;;;8395250;28;20098;-87
2022/10/14 17:41:48;;;;;;;46.45;24.98;;;;;;;;;;8395644;28;20044;-88
2022/10/14 17:46:00;;;;;;;64.55;33.95;;;;;;;;;;8377759;28;20055;-86
2022/10/14 17:50:12;;;;;;;49.75;29.15;;;;;;;;;;8404888;28;20056;-88
2022/10/14 17:54:17;;;;;;;60.88;30.60;;;;;;;;;;8409075;28;20048;-88
2022/10/14 17:58:21;;;;;;;47.15;25.27;;;;;;;;;;8382984;28;20450;-87
2022/10/14 18:02:27;;;;;;;46.35;24.45;;;;;;;;;;8401518;28;20475;-88
2022/10/14 18:06:34;;;;;;;40.70;22.48;;;;;;;;;;8401527;28;20044;-87
2022/10/14 18:10:45;;;;;;;45.17;24.75;;;;;;;;;;8401320;28;20201;-88
2022/10/14 18:14:49;;;;;;;115.57;49.63;;;;;;;;;;8399974;28;20040;-87
2022/10/14 18:19:08;;;;;;;144.85;54.83;;;;;;;;;;8401128;28;20040;-88
2022/10/14 18:23:13;;;;;;;166.25;70.55;;;;;;;;;;8401210;28;20048;-86
2022/10/14 18:27:17;;;;;;;132.48;61.47;;;;;;;;;;8400769;28;20411;-87
2022/10/14 18:31:22;;;;;;;79.75;38.58;;;;;;;;;;8400628;28;20128;-88
2022/10/14 18:35:26;;;;;;;69.03;35.67;;;;;;;;;;8395382;28;20040;-87
2022/10/14 18:39:29;;;;;;;64.22;30.35;;;;;;;;;;8400298;28;20041;-89
2022/10/14 18:43:33;;;;;;;105.40;49.88;;;;;;;;;;8398604;28;20048;-86
2022/10/14 18:47:36;;;;;;;84.55;41.33;;;;;;;;;;8400080;28;20044;-87
2022/10/14 18:51:42;;;;;;;69.35;34.25;;;;;;;;;;8399692;28;20630;-88
2022/10/14 18:55:55;;;;;;;58.60;33.47;;;;;;;;;;8392931;28;20044;-87
2022/10/14 19:00:04;;;;;;;74.78;37.92;;;;;;;;;;8393705;28;20040;-88
2022/10/14 19:04:11;;;;;;;70.00;37.13;;;;;;;;;;8397225;28;20495;-85
2022/10/14 19:08:13;;;;;;;80.47;41.60;;;;;;;;;;8399517;28;20049;-87
2022/10/14 19:16:39;;;;;;;128.50;59.50;;;;;;;;;;8403379;28;20052;-86
2022/10/14 19:20:44;;;;;;;81.28;40.92;;;;;;;;;;8398456;28;20032;-88
2022/10/14 19:24:46;;;;;;;89.15;42.83;;;;;;;;;;8398129;28;20120;-88
2022/10/14 19:28:50;;;;;;;83.78;38.63;;;;;;;;;;8394277;28;20533;-88
2022/10/14 19:32:55;;;;;;;82.70;36.92;;;;;;;;;;8397990;28;20377;-86
2022/10/14 19:37:03;;;;;;;191.15;93.15;;;;;;;;;;8398560;28;20041;-88
2022/10/14 19:41:08;;;;;;;158.18;72.90;;;;;;;;;;8398876;28;20044;-85
2022/10/14 19:45:12;;;;;;;112.82;49.78;;;;;;;;;;8398904;28;20380;-86
2022/10/14 19:49:17;;;;;;;149.10;73.05;;;;;;;;;;8398407;28;20082;-87
2022/10/14 19:53:20;;;;;;;172.13;92.80;;;;;;;;;;8384857;28;20541;-86
2022/10/14 19:57:23;;;;;;;181.70;90.43;;;;;;;;;;8398154;28;20044;-86
2022/10/14 20:01:28;;;;;;;162.00;81.57;;;;;;;;;;8398091;28;20064;-86
2022/10/14 20:05:32;;;;;;;147.35;59.25;;;;;;;;;;8398561;28;20064;-87
2022/10/14 20:09:35;;;;;;;169.25;90.78;;;;;;;;;;8397323;28;20090;-87
2022/10/14 20:13:38;;;;;;;121.25;54.70;;;;;;;;;;8397578;28;20036;-86
2022/10/14 20:17:41;;;;;;;126.90;55.63;;;;;;;;;;8397725;28;20052;-86
2022/10/14 20:21:45;;;;;;;103.60;45.42;;;;;;;;;;8397358;28;20546;-87
2022/10/14 20:25:48;;;;;;;100.85;48.10;;;;;;;;;;8397368;28;20479;-87
2022/10/14 20:29:50;;;;;;;100.13;47.25;;;;;;;;;;8379652;28;20044;-87
2022/10/14 20:33:55;;;;;;;87.45;38.25;;;;;;;;;;8396991;28;20703;-87
2022/10/14 20:37:59;;;;;;;84.45;36.95;;;;;;;;;;8397115;28;20052;-87
2022/10/14 20:42:04;;;;;;;90.25;39.83;;;;;;;;;;8397176;28;20434;-87
2022/10/14 20:46:07;;;;;;;90.32;40.53;;;;;;;;;;8397000;28;20045;-86
2022/10/14 20:50:10;;;;;;;85.25;40.35;;;;;;;;;;8396515;28;20051;-88
2022/10/14 20:54:14;;;;;;;89.80;34.85;;;;;;;;;;8396326;28;20049;-86
2022/10/14 20:58:17;;;;;;;105.55;47.20;;;;;;;;;;8396201;28;20040;-86
2022/10/14 21:02:21;;;;;;;79.68;35.17;;;;;;;;;;8396345;28;20495;-86
2022/10/14 21:06:24;;;;;;;111.88;43.88;;;;;;;;;;8396209;28;20419;-87
2022/10/14 21:10:29;;;;;;;70.70;33.05;;;;;;;;;;8378623;28;20048;-86
2022/10/14 21:14:31;;;;;;;84.10;35.42;;;;;;;;;;8396419;28;20044;-87
2022/10/14 21:18:34;;;;;;;76.80;32.85;;;;;;;;;;8378282;28;20082;-87
2022/10/14 21:22:36;;;;;;;79.93;33.53;;;;;;;;;;8394991;28;20052;-86
2022/10/14 21:26:40;;;;;;;118.32;42.70;;;;;;;;;;8395883;28;20111;-86
2022/10/14 21:30:43;;;;;;;79.47;34.50;;;;;;;;;;8395630;28;20047;-86
2022/10/14 21:34:45;;;;;;;73.60;32.60;;;;;;;;;;8395533;28;20053;-86
2022/10/14 21:38:48;;;;;;;92.15;37.58;;;;;;;;;;8395673;28;20434;-86
2022/10/14 21:42:52;;;;;;;87.82;34.72;;;;;;;;;;8381319;28;20381;-86
2022/10/14 21:46:55;;;;;;;86.45;35.38;;;;;;;;;;8395478;28;20472;-88
2022/10/14 21:51:04;;;;;;;75.72;33.90;;;;;;;;;;8395195;28;20056;-87
2022/10/14 21:55:07;;;;;;;94.28;37.63;;;;;;;;;;8377372;28;20051;-86
2022/10/14 21:59:11;;;;;;;98.10;34.78;;;;;;;;;;8395414;28;20557;-86
2022/10/14 22:03:16;;;;;;;88.82;34.72;;;;;;;;;;8395105;28;20045;-86
2022/10/14 22:07:18;;;;;;;76.07;34.42;;;;;;;;;;8395034;28;20403;-86
2022/10/14 22:11:23;;;;;;;81.88;34.38;;;;;;;;;;8395015;28;20132;-87
2022/10/14 22:15:27;;;;;;;94.13;38.83;;;;;;;;;;8394745;28;20037;-87
2022/10/14 22:19:29;;;;;;;109.68;41.63;;;;;;;;;;8394891;28;20190;-87
2022/10/14 22:23:32;;;;;;;123.15;46.97;;;;;;;;;;8394774;28;20079;-86
2022/10/14 22:27:36;;;;;;;104.03;36.08;;;;;;;;;;8390394;28;20471;-88
2022/10/14 22:31:43;;;;;;;106.07;36.35;;;;;;;;;;8392982;28;20480;-88
2022/10/14 22:35:46;;;;;;;103.43;38.15;;;;;;;;;;8399275;28;20133;-86
2022/10/14 22:39:49;;;;;;;100.07;38.47;;;;;;;;;;8383817;28;20430;-87
2022/10/14 22:43:53;;;;;;;88.05;35.35;;;;;;;;;;8397730;28;20044;-88
2022/10/14 22:47:58;;;;;;;94.68;34.28;;;;;;;;;;8399799;28;20484;-86
2022/10/14 22:52:01;;;;;;;110.97;37.70;;;;;;;;;;8402308;28;20102;-86
2022/10/14 22:56:05;;;;;;;98.82;34.75;;;;;;;;;;8399973;28;20094;-88
2022/10/14 23:00:10;;;;;;;103.10;33.85;;;;;;;;;;8399445;28;20040;-88
2022/10/14 23:04:14;;;;;;;81.22;31.08;;;;;;;;;;8399511;28;20515;-87
2022/10/14 23:08:17;;;;;;;70.35;30.33;;;;;;;;;;8399524;28;20045;-87
2022/10/14 23:12:19;;;;;;;86.93;32.55;;;;;;;;;;8400329;28;20049;-86
2022/10/14 23:16:23;;;;;;;80.65;30.10;;;;;;;;;;8398322;28;20044;-86
2022/10/14 23:20:27;;;;;;;103.35;32.05;;;;;;;;;;8397171;28;20044;-86
2022/10/14 23:24:29;;;;;;;94.15;31.50;;;;;;;;;;8399317;28;20047;-87
2022/10/14 23:28:32;;;;;;;77.70;29.27;;;;;;;;;;8399288;28;20044;-86
2022/10/14 23:32:34;;;;;;;87.07;29.33;;;;;;;;;;8399175;28;20449;-85
2022/10/14 23:36:39;;;;;;;90.72;30.05;;;;;;;;;;8398962;28;20067;-86
2022/10/14 23:40:41;;;;;;;86.32;28.20;;;;;;;;;;8398953;28;20049;-85
2022/10/14 23:44:44;;;;;;;76.50;28.67;;;;;;;;;;8397821;28;20048;-85
2022/10/14 23:48:46;;;;;;;97.45;33.22;;;;;;;;;;8398825;28;20070;-85
2022/10/14 23:52:50;;;;;;;92.55;34.40;;;;;;;;;;8398760;28;20048;-88
2022/10/14 23:56:53;;;;;;;98.43;35.80;;;;;;;;;;8398449;28;20522;-86
